createdAt,value
2018-12-30T00:01:40.225Z,100824.92
2018-12-30T00:04:08.653Z,100842.20
2018-12-30T00:06:37.524Z,100840.47
2018-12-30T00:09:06.839Z,100847.38
2018-12-30T00:11:35.676Z,100841.30
2018-12-30T00:14:04.100Z,100842.19
2018-12-30T00:16:32.569Z,100841.73
2018-12-30T00:19:00.931Z,100846.07
2018-12-30T00:21:29.329Z,100835.27
2018-12-30T00:23:57.733Z,100839.59
2018-12-30T00:26:26.091Z,100833.95
2018-12-30T00:28:54.553Z,100830.47
2018-12-30T00:31:22.912Z,100810.61
2018-12-30T00:33:51.302Z,100825.28
2018-12-30T00:36:19.665Z,100822.67
2018-12-30T00:38:48.069Z,100819.66
2018-12-30T00:41:16.432Z,100814.48
2018-12-30T00:43:45.336Z,100817.92
2018-12-30T00:46:13.772Z,100809.25
2018-12-30T00:48:42.175Z,100806.70
2018-12-30T00:51:17.000Z,100807.53
2018-12-30T00:53:40.734Z,100812.27
2018-12-30T00:56:09.096Z,100826.45
2018-12-30T00:58:37.489Z,100825.33
2018-12-30T01:01:06.138Z,100826.41
2018-12-30T01:03:34.612Z,100820.25
2018-12-30T01:06:03.049Z,100825.98
2018-12-30T01:08:31.442Z,100836.81
2018-12-30T01:10:59.896Z,100834.22
2018-12-30T01:13:28.311Z,100835.52
2018-12-30T01:15:56.743Z,100843.29
2018-12-30T01:18:25.224Z,100841.14
2018-12-30T01:20:53.613Z,100852.81
2018-12-30T01:23:22.104Z,100854.11
2018-12-30T01:25:50.585Z,100847.17
2018-12-30T01:28:18.988Z,100847.17
2018-12-30T01:30:47.391Z,100855.80
2018-12-30T01:33:15.836Z,100873.11
2018-12-30T01:35:44.221Z,100865.72
2018-12-30T01:38:12.585Z,100868.74
2018-12-30T01:40:41.224Z,100873.08
2018-12-30T01:43:09.580Z,100881.27
2018-12-30T01:45:37.990Z,100896.39
2018-12-30T01:48:06.363Z,100892.92
2018-12-30T01:50:34.823Z,100893.77
2018-12-30T01:53:03.256Z,100891.17
2018-12-30T01:55:31.649Z,100887.72
2018-12-30T01:58:00.011Z,100892.06
2018-12-30T02:00:28.490Z,100891.17
2018-12-30T02:02:56.847Z,100909.34
2018-12-30T02:05:25.327Z,100910.20
2018-12-30T02:07:53.744Z,100888.17
2018-12-30T02:10:22.153Z,100889.43
2018-12-30T02:12:50.520Z,100896.37
2018-12-30T02:15:18.937Z,100893.31
2018-12-30T02:17:49.190Z,100907.59
2018-12-30T02:20:17.878Z,100916.67
2018-12-30T02:22:46.323Z,100910.63
2018-12-30T02:25:14.732Z,100913.67
2018-12-30T02:27:43.179Z,100926.20
2018-12-30T02:30:11.603Z,100921.91
2018-12-30T02:32:40.367Z,100914.09
2018-12-30T02:35:08.807Z,100918.41
2018-12-30T02:37:37.214Z,100905.89
2018-12-30T02:40:05.627Z,100909.77
2018-12-30T02:42:34.090Z,100915.80
2018-12-30T02:45:02.862Z,100916.21
2018-12-30T02:47:33.336Z,100920.55
2018-12-30T02:50:01.694Z,100926.20
2018-12-30T02:52:30.091Z,100915.80
2018-12-30T02:54:58.484Z,100930.53
2018-12-30T02:57:27.421Z,100943.47
2018-12-30T02:59:55.801Z,100943.47
2018-12-30T03:02:24.221Z,100943.05
2018-12-30T03:04:52.617Z,100945.19
2018-12-30T03:07:20.979Z,100926.59
2018-12-30T03:09:49.523Z,100927.00
2018-12-30T03:12:17.917Z,100921.39
2018-12-30T03:14:46.285Z,100932.66
2018-12-30T03:17:14.686Z,100935.66
2018-12-30T03:19:43.051Z,100941.30
2018-12-30T03:22:11.723Z,100940.45
2018-12-30T03:24:40.106Z,100937.80
2018-12-30T03:27:08.587Z,100915.72
2018-12-30T03:29:36.953Z,100916.61
2018-12-30T03:32:05.316Z,100900.58
2018-12-30T03:34:33.709Z,100933.48
2018-12-30T03:37:02.101Z,100944.69
2018-12-30T03:39:30.506Z,100946.40
2018-12-30T03:41:59.022Z,100927.83
2018-12-30T03:44:27.444Z,100932.13
2018-12-30T03:46:55.816Z,100923.91
2018-12-30T03:49:24.308Z,100933.41
2018-12-30T03:51:52.674Z,100938.14
2018-12-30T03:54:21.477Z,100957.20
2018-12-30T03:56:49.834Z,100949.41
2018-12-30T03:59:18.248Z,100936.00
2018-12-30T04:01:46.622Z,100937.30
2018-12-30T04:04:15.030Z,100932.95
2018-12-30T04:06:43.445Z,100923.45
2018-12-30T04:09:11.973Z,100939.44
2018-12-30T04:11:42.051Z,100932.52
2018-12-30T04:14:10.517Z,100931.22
2018-12-30T04:16:38.953Z,100935.13
2018-12-30T04:19:07.358Z,100930.77
2018-12-30T04:21:35.729Z,100935.11
2018-12-30T04:24:04.124Z,100918.64
2018-12-30T04:26:32.550Z,100915.17
2018-12-30T04:29:00.957Z,100927.27
2018-12-30T04:31:29.401Z,100929.44
2018-12-30T04:33:57.857Z,100926.83
2018-12-30T04:36:26.232Z,100943.66
2018-12-30T04:38:54.663Z,100965.73
2018-12-30T04:41:23.029Z,100959.66
2018-12-30T04:43:51.423Z,100965.71
2018-12-30T04:46:19.824Z,100968.77
2018-12-30T04:48:48.228Z,100961.34
2018-12-30T04:51:16.590Z,100947.95
2018-12-30T04:53:44.988Z,100930.17
2018-12-30T04:56:13.354Z,100950.50
2018-12-30T04:58:41.712Z,100954.84
2018-12-30T05:01:10.191Z,100957.44
2018-12-30T05:03:38.709Z,100956.98
2018-12-30T05:06:07.185Z,100968.27
2018-12-30T05:08:35.553Z,100969.98
2018-12-30T05:11:04.388Z,100975.63
2018-12-30T05:13:32.818Z,100982.09
2018-12-30T05:16:01.217Z,100989.02
2018-12-30T05:18:29.583Z,100981.64
2018-12-30T05:20:58.062Z,100966.89
2018-12-30T05:23:27.941Z,100979.87
2018-12-30T05:25:56.333Z,100989.41
2018-12-30T05:28:24.703Z,100994.60
2018-12-30T05:30:53.103Z,100994.62
2018-12-30T05:33:21.486Z,101014.09
2018-12-30T05:35:51.259Z,101028.39
2018-12-30T05:38:19.676Z,101039.16
2018-12-30T05:40:48.076Z,101035.27
2018-12-30T05:43:16.443Z,101039.61
2018-12-30T05:45:44.882Z,101038.75
2018-12-30T05:48:13.248Z,101037.86
2018-12-30T05:50:41.606Z,101034.38
2018-12-30T05:53:10.017Z,101043.06
2018-12-30T05:55:38.453Z,101043.50
2018-12-30T05:58:06.877Z,101052.16
2018-12-30T06:00:35.230Z,101055.20
2018-12-30T06:03:03.627Z,101063.42
2018-12-30T06:05:32.053Z,101069.48
2018-12-30T06:08:00.463Z,101072.52
2018-12-30T06:10:28.831Z,101060.84
2018-12-30T06:12:57.303Z,101065.59
2018-12-30T06:15:25.662Z,101059.55
2018-12-30T06:17:54.056Z,101065.16
2018-12-30T06:20:22.427Z,101062.55
2018-12-30T06:22:50.820Z,101068.21
2018-12-30T06:25:19.305Z,101063.00
2018-12-30T06:27:47.725Z,101062.13
2018-12-30T06:30:16.116Z,101061.25
2018-12-30T06:32:44.528Z,101062.14
2018-12-30T06:35:12.956Z,101068.64
2018-12-30T06:37:41.423Z,101066.45
2018-12-30T06:40:11.545Z,101063.42
2018-12-30T06:42:40.270Z,101065.14
2018-12-30T06:45:08.658Z,101072.48
2018-12-30T06:47:37.060Z,101086.83
2018-12-30T06:50:06.513Z,101089.84
2018-12-30T06:52:34.903Z,101100.23
2018-12-30T06:55:03.269Z,101109.33
2018-12-30T06:57:31.714Z,101103.73
2018-12-30T07:00:00.086Z,101099.37
2018-12-30T07:02:28.537Z,101102.84
2018-12-30T07:04:56.920Z,101100.30
2018-12-30T07:07:25.283Z,101113.69
2018-12-30T07:09:53.734Z,101119.33
2018-12-30T07:12:22.083Z,101123.69
2018-12-30T07:14:50.544Z,101120.20
2018-12-30T07:17:18.918Z,101127.98
2018-12-30T07:19:47.320Z,101123.67
2018-12-30T07:22:15.683Z,101127.58
2018-12-30T07:24:44.078Z,101124.53
2018-12-30T07:27:12.443Z,101127.58
2018-12-30T07:29:40.854Z,101134.53
2018-12-30T07:32:09.220Z,101132.80
2018-12-30T07:34:37.611Z,101128.00
2018-12-30T07:37:06.111Z,101131.48
2018-12-30T07:39:34.635Z,101129.75
2018-12-30T07:42:02.995Z,101125.84
2018-12-30T07:44:31.393Z,101115.46
2018-12-30T07:46:59.833Z,101106.38
2018-12-30T07:49:28.218Z,101102.53
2018-12-30T07:51:56.674Z,101090.39
2018-12-30T07:54:25.051Z,101105.52
2018-12-30T07:56:53.417Z,101121.56
2018-12-30T07:59:21.847Z,101116.81
2018-12-30T08:01:50.185Z,101126.77
2018-12-30T08:04:18.600Z,101135.40
2018-12-30T08:06:46.960Z,101138.44
2018-12-30T08:09:15.321Z,101143.19
2018-12-30T08:11:43.720Z,101150.12
2018-12-30T08:14:12.155Z,101150.54
2018-12-30T08:16:40.561Z,101156.63
2018-12-30T08:19:08.932Z,101161.82
2018-12-30T08:21:37.394Z,101164.42
2018-12-30T08:24:05.756Z,101170.48
2018-12-30T08:26:34.164Z,101170.91
2018-12-30T08:29:02.528Z,101176.06
2018-12-30T08:31:30.979Z,101126.41
2018-12-30T08:33:59.401Z,101181.70
2018-12-30T08:36:27.794Z,101194.70
2018-12-30T08:38:56.816Z,101200.34
2018-12-30T08:41:25.261Z,101194.70
2018-12-30T08:43:53.614Z,101195.98
2018-12-30T08:46:21.993Z,101191.19
2018-12-30T08:48:50.426Z,101188.65
2018-12-30T08:51:18.852Z,101186.00
2018-12-30T08:53:47.272Z,101182.55
2018-12-30T08:56:15.664Z,101186.00
2018-12-30T08:58:44.101Z,101184.28
2018-12-30T09:01:12.506Z,101192.92
2018-12-30T09:03:40.957Z,101195.91
2018-12-30T09:06:09.456Z,101192.85
2018-12-30T09:08:37.976Z,101190.72
2018-12-30T09:11:06.458Z,101190.72
2018-12-30T09:13:34.883Z,101194.62
2018-12-30T09:16:03.277Z,101198.11
2018-12-30T09:18:31.650Z,101195.08
2018-12-30T09:21:00.032Z,101198.50
2018-12-30T09:23:28.437Z,101194.61
2018-12-30T09:25:56.799Z,101202.79
2018-12-30T09:28:25.271Z,101204.97
2018-12-30T09:30:53.632Z,101205.84
2018-12-30T09:33:23.624Z,101213.18
2018-12-30T09:35:51.988Z,101214.02
2018-12-30T09:38:20.382Z,101213.16
2018-12-30T09:40:48.817Z,101210.09
2018-12-30T09:43:17.327Z,101211.84
2018-12-30T09:45:45.826Z,101211.41
2018-12-30T09:48:16.881Z,101217.91
2018-12-30T09:50:45.402Z,101218.73
2018-12-30T09:53:15.172Z,101224.00
2018-12-30T09:55:43.516Z,101222.19
2018-12-30T09:58:11.942Z,101216.59
2018-12-30T10:00:40.303Z,101226.97
2018-12-30T10:03:08.773Z,101223.08
2018-12-30T10:05:37.206Z,101233.03
2018-12-30T10:08:05.598Z,101239.53
2018-12-30T10:10:34.068Z,101240.81
2018-12-30T10:13:02.679Z,101246.46
2018-12-30T10:15:31.042Z,101239.50
2018-12-30T10:17:59.433Z,101240.79
2018-12-30T10:20:27.799Z,101243.78
2018-12-30T10:22:58.934Z,101232.52
2018-12-30T10:25:26.367Z,101225.55
2018-12-30T10:27:56.020Z,101227.69
2018-12-30T10:30:24.387Z,101219.88
2018-12-30T10:32:54.310Z,101205.94
2018-12-30T10:35:24.767Z,101204.23
2018-12-30T10:37:53.206Z,101208.95
2018-12-30T10:40:21.651Z,101204.99
2018-12-30T10:42:50.071Z,101209.70
2018-12-30T10:45:18.592Z,101216.29
2018-12-30T10:47:46.945Z,101201.50
2018-12-30T10:50:15.430Z,101208.81
2018-12-30T10:52:43.800Z,101210.59
2018-12-30T10:55:12.197Z,101210.59
2018-12-30T10:57:40.555Z,101212.72
2018-12-30T11:00:09.877Z,101207.98
2018-12-30T11:02:38.315Z,101207.05
2018-12-30T11:05:06.788Z,101213.55
2018-12-30T11:07:35.234Z,101211.77
2018-12-30T11:10:04.315Z,101212.59
2018-12-30T11:12:32.841Z,101214.30
2018-12-30T11:15:01.235Z,101210.33
2018-12-30T11:17:29.689Z,101203.42
2018-12-30T11:19:58.149Z,101207.20
2018-12-30T11:22:26.926Z,101203.24
2018-12-30T11:24:55.634Z,101198.05
2018-12-30T11:27:24.009Z,101193.17
2018-12-30T11:29:52.403Z,101187.91
2018-12-30T11:32:20.832Z,101190.67
2018-12-30T11:34:49.304Z,101191.95
2018-12-30T11:37:18.076Z,101198.34
2018-12-30T11:39:46.482Z,101205.71
2018-12-30T11:42:14.910Z,101211.33
2018-12-30T11:44:43.274Z,101208.67
2018-12-30T11:47:12.531Z,101205.63
2018-12-30T11:49:40.963Z,101210.92
2018-12-30T11:52:09.380Z,101218.18
2018-12-30T11:54:37.751Z,101206.45
2018-12-30T11:57:06.207Z,101217.74
2018-12-30T11:59:34.570Z,101214.27
2018-12-30T12:02:03.112Z,101215.53
2018-12-30T12:04:31.471Z,101218.99
2018-12-30T12:06:59.870Z,101219.51
2018-12-30T12:09:28.228Z,101209.98
2018-12-30T12:11:56.936Z,101202.09
2018-12-30T12:14:25.301Z,101196.53
2018-12-30T12:16:53.697Z,101189.50
2018-12-30T12:19:22.081Z,101186.52
2018-12-30T12:21:50.540Z,101180.35
2018-12-30T12:24:24.236Z,101178.15
2018-12-30T12:26:49.035Z,101177.36
2018-12-30T12:29:17.512Z,101160.81
2018-12-30T12:31:46.203Z,101158.14
2018-12-30T12:34:14.558Z,101161.61
2018-12-30T12:36:43.018Z,101165.09
2018-12-30T12:39:11.384Z,101155.47
2018-12-30T12:41:41.507Z,101164.69
2018-12-30T12:44:09.928Z,101164.67
2018-12-30T12:46:39.067Z,101161.18
2018-12-30T12:49:08.138Z,101166.03
2018-12-30T12:51:36.682Z,101168.09
2018-12-30T12:54:05.263Z,101181.90
2018-12-30T12:56:34.238Z,101181.98
2018-12-30T12:59:02.746Z,101180.20
2018-12-30T13:01:31.203Z,101180.61
2018-12-30T13:03:59.692Z,101177.11
2018-12-30T13:06:28.058Z,101188.48
2018-12-30T13:08:56.462Z,101185.94
2018-12-30T13:11:24.963Z,101181.19
2018-12-30T13:13:53.379Z,101181.16
2018-12-30T13:16:21.733Z,101180.70
2018-12-30T13:18:50.198Z,101172.41
2018-12-30T13:21:19.001Z,101160.62
2018-12-30T13:23:47.404Z,101156.84
2018-12-30T13:26:16.339Z,101159.48
2018-12-30T13:28:44.804Z,101169.02
2018-12-30T13:31:13.311Z,101169.90
2018-12-30T13:33:42.199Z,101161.26
2018-12-30T13:36:11.120Z,101160.77
2018-12-30T13:38:39.585Z,101159.95
2018-12-30T13:41:12.736Z,101160.38
2018-12-30T13:43:41.794Z,101164.28
2018-12-30T13:46:10.227Z,101166.55
2018-12-30T13:48:42.407Z,101165.61
2018-12-30T13:51:10.841Z,101160.87
2018-12-30T13:53:39.254Z,101165.70
2018-12-30T13:56:08.270Z,101162.66
2018-12-30T13:58:36.731Z,101159.59
2018-12-30T14:01:05.171Z,101153.06
2018-12-30T14:03:37.968Z,101148.77
2018-12-30T14:06:06.435Z,101153.86
2018-12-30T14:08:35.018Z,101149.61
2018-12-30T14:11:03.453Z,101155.20
2018-12-30T14:13:31.902Z,101150.11
2018-12-30T14:16:00.265Z,101160.50
2018-12-30T14:18:28.772Z,101157.81
2018-12-30T14:20:57.644Z,101160.91
2018-12-30T14:23:26.114Z,101158.38
2018-12-30T14:25:54.767Z,101169.13
2018-12-30T14:28:23.146Z,101168.28
2018-12-30T14:30:51.530Z,101161.80
2018-12-30T14:33:20.001Z,101176.53
2018-12-30T14:35:48.775Z,101172.23
2018-12-30T14:38:17.215Z,101170.05
2018-12-30T14:40:45.621Z,101166.14
2018-12-30T14:43:14.307Z,101168.69
2018-12-30T14:45:42.832Z,101166.58
2018-12-30T14:48:11.219Z,101170.09
2018-12-30T14:50:39.734Z,101164.41
2018-12-30T14:53:08.703Z,101167.48
2018-12-30T14:55:37.113Z,101176.13
2018-12-30T14:58:05.491Z,101171.80
2018-12-30T15:00:34.435Z,101166.62
2018-12-30T15:03:03.569Z,101182.27
2018-12-30T15:05:32.177Z,101191.77
2018-12-30T15:08:00.619Z,101194.80
2018-12-30T15:10:29.717Z,101202.22
2018-12-30T15:12:58.157Z,101192.63
2018-12-30T15:15:26.554Z,101192.64
2018-12-30T15:17:54.912Z,101185.75
2018-12-30T15:20:23.375Z,101188.34
2018-12-30T15:22:51.748Z,101186.20
2018-12-30T15:25:20.113Z,101189.24
2018-12-30T15:27:48.591Z,101195.30
2018-12-30T15:30:17.021Z,101196.67
2018-12-30T15:32:45.653Z,101205.73
2018-12-30T15:35:14.008Z,101198.81
2018-12-30T15:37:42.428Z,101197.49
2018-12-30T15:40:10.872Z,101195.73
2018-12-30T15:42:40.228Z,101190.05
2018-12-30T15:45:08.669Z,101197.05
2018-12-30T15:47:37.068Z,101195.36
2018-12-30T15:50:07.764Z,101200.14
2018-12-30T15:52:36.172Z,101188.85
2018-12-30T15:55:04.820Z,101193.17
2018-12-30T15:57:33.225Z,101178.81
2018-12-30T16:00:01.689Z,101184.95
2018-12-30T16:02:30.082Z,101184.53
2018-12-30T16:04:59.023Z,101193.66
2018-12-30T16:07:27.490Z,101196.67
2018-12-30T16:09:56.139Z,101194.95
2018-12-30T16:12:24.607Z,101190.19
2018-12-30T16:14:53.050Z,101199.28
2018-12-30T16:17:21.525Z,101191.90
2018-12-30T16:19:50.070Z,101179.36
2018-12-30T16:22:18.674Z,101177.20
2018-12-30T16:24:47.802Z,101177.62
2018-12-30T16:27:16.336Z,101177.19
2018-12-30T16:29:45.219Z,101187.13
2018-12-30T16:32:13.699Z,101188.44
2018-12-30T16:34:42.556Z,101197.13
2018-12-30T16:37:11.206Z,101196.27
2018-12-30T16:39:40.148Z,101192.83
2018-12-30T16:42:08.863Z,101195.86
2018-12-30T16:44:41.524Z,101191.98
2018-12-30T16:47:10.439Z,101186.28
2018-12-30T16:49:39.639Z,101184.20
2018-12-30T16:52:08.072Z,101181.14
2018-12-30T16:54:38.361Z,101180.29
2018-12-30T16:57:06.828Z,101181.14
2018-12-30T16:59:35.314Z,101181.63
2018-12-30T17:02:05.705Z,101180.77
2018-12-30T17:04:34.590Z,101179.45
2018-12-30T17:07:04.188Z,101182.89
2018-12-30T17:09:34.847Z,101185.03
2018-12-30T17:12:04.086Z,101182.44
2018-12-30T17:14:33.380Z,101176.78
2018-12-30T17:17:03.119Z,101177.20
2018-12-30T17:19:35.099Z,101164.66
2018-12-30T17:22:07.910Z,101162.02
2018-12-30T17:24:36.849Z,101165.92
2018-12-30T17:27:07.203Z,101176.33
2018-12-30T17:29:35.955Z,101171.98
2018-12-30T17:32:04.722Z,101172.44
2018-12-30T17:34:33.820Z,101177.65
2018-12-30T17:37:03.788Z,101184.16
2018-12-30T17:39:32.356Z,101178.52
2018-12-30T17:42:01.375Z,101178.52
2018-12-30T17:44:30.508Z,101183.70
2018-12-30T17:47:00.914Z,101192.00
2018-12-30T17:49:29.655Z,101188.00
2018-12-30T17:51:58.137Z,101185.40
2018-12-30T17:54:30.285Z,101182.78
2018-12-30T17:56:59.267Z,101162.97
2018-12-30T17:59:28.909Z,101185.02
2018-12-30T18:01:57.278Z,101180.23
2018-12-30T18:04:25.655Z,101173.66
2018-12-30T18:06:54.169Z,101174.10
2018-12-30T18:09:23.069Z,101180.15
2018-12-30T18:11:53.245Z,101182.34
2018-12-30T18:14:21.622Z,101178.38
2018-12-30T18:16:50.013Z,101174.48
2018-12-30T18:19:18.472Z,101177.99
2018-12-30T18:21:46.990Z,101174.90
2018-12-30T18:24:15.378Z,101186.16
2018-12-30T18:26:43.778Z,101198.36
2018-12-30T18:29:12.205Z,101201.03
2018-12-30T18:31:40.690Z,101191.50
2018-12-30T18:34:09.055Z,101190.58
2018-12-30T18:36:37.540Z,101189.30
2018-12-30T18:39:07.257Z,101184.19
2018-12-30T18:41:35.761Z,101182.87
2018-12-30T18:44:04.272Z,101179.34
2018-12-30T18:46:32.722Z,101179.35
2018-12-30T18:49:01.275Z,101171.53
2018-12-30T18:51:29.673Z,101166.77
2018-12-30T18:53:58.032Z,101164.65
2018-12-30T18:56:26.423Z,101170.71
2018-12-30T18:58:54.787Z,101173.72
2018-12-30T19:01:23.340Z,101178.01
2018-12-30T19:03:51.773Z,101175.85
2018-12-30T19:06:20.334Z,101176.68
2018-12-30T19:08:48.700Z,101174.48
2018-12-30T19:11:17.164Z,101175.78
2018-12-30T19:13:45.873Z,101178.38
2018-12-30T19:16:14.410Z,101172.25
2018-12-30T19:18:42.783Z,101177.92
2018-12-30T19:21:11.158Z,101177.99
2018-12-30T19:23:39.570Z,101180.16
2018-12-30T19:26:14.266Z,101168.87
2018-12-30T19:28:38.189Z,101172.33
2018-12-30T19:31:06.556Z,101168.06
2018-12-30T19:33:34.957Z,101170.19
2018-12-30T19:36:03.759Z,101169.33
2018-12-30T19:38:32.166Z,101171.48
2018-12-30T19:41:00.527Z,101167.59
2018-12-30T19:43:28.991Z,101180.61
2018-12-30T19:45:57.351Z,101175.89
2018-12-30T19:48:25.779Z,101174.98
2018-12-30T19:50:54.145Z,101173.73
2018-12-30T19:53:22.541Z,101171.15
2018-12-30T19:55:50.974Z,101155.09
2018-12-30T19:58:19.369Z,101165.13
2018-12-30T20:00:47.803Z,101165.94
2018-12-30T20:03:16.437Z,101177.22
2018-12-30T20:05:45.090Z,101176.77
2018-12-30T20:08:13.586Z,101172.87
2018-12-30T20:10:42.806Z,101172.87
2018-12-30T20:13:11.204Z,101164.20
2018-12-30T20:15:40.270Z,101167.23
2018-12-30T20:18:09.408Z,101160.31
2018-12-30T20:20:38.026Z,101162.05
2018-12-30T20:23:08.970Z,101161.59
2018-12-30T20:25:37.419Z,101154.88
2018-12-30T20:28:05.844Z,101150.37
2018-12-30T20:30:36.078Z,101154.43
2018-12-30T20:33:06.688Z,101142.05
2018-12-30T20:35:35.134Z,101136.89
2018-12-30T20:38:03.762Z,101123.02
2018-12-30T20:40:32.227Z,101124.78
2018-12-30T20:43:00.695Z,101123.51
2018-12-30T20:45:29.280Z,101126.52
2018-12-30T20:47:57.733Z,101121.28
2018-12-30T20:50:26.185Z,101117.84
2018-12-30T20:52:54.617Z,101116.97
2018-12-30T20:55:23.106Z,101118.70
2018-12-30T20:57:51.586Z,101118.67
2018-12-30T21:00:20.140Z,101116.54
2018-12-30T21:02:48.518Z,101116.54
2018-12-30T21:05:17.000Z,101108.27
2018-12-30T21:07:45.441Z,101100.38
2018-12-30T21:10:13.922Z,101098.71
2018-12-30T21:12:42.284Z,101102.17
2018-12-30T21:15:10.749Z,101106.88
2018-12-30T21:17:39.109Z,101102.61
2018-12-30T21:20:07.654Z,101101.33
2018-12-30T21:22:36.203Z,101112.17
2018-12-30T21:25:05.432Z,101111.30
2018-12-30T21:27:34.272Z,101110.86
2018-12-30T21:30:02.737Z,101100.91
2018-12-30T21:32:31.202Z,101097.86
2018-12-30T21:34:59.662Z,101099.59
2018-12-30T21:37:28.188Z,101100.85
2018-12-30T21:39:56.553Z,101101.72
2018-12-30T21:42:24.980Z,101102.19
2018-12-30T21:44:53.437Z,101100.03
2018-12-30T21:47:24.164Z,101096.53
2018-12-30T21:49:52.891Z,101091.77
2018-12-30T21:52:21.386Z,101083.98
2018-12-30T21:54:49.761Z,101075.27
2018-12-30T21:57:18.148Z,101075.29
2018-12-30T21:59:48.691Z,101076.61
2018-12-30T22:02:17.560Z,101078.80
2018-12-30T22:04:46.122Z,101069.32
2018-12-30T22:07:14.534Z,101069.32
2018-12-30T22:09:42.961Z,101078.90
2018-12-30T22:12:11.371Z,101074.93
2018-12-30T22:14:40.116Z,101080.59
2018-12-30T22:17:09.705Z,101086.22
2018-12-30T22:19:38.731Z,101087.07
2018-12-30T22:22:11.330Z,101098.31
2018-12-30T22:24:41.314Z,101103.98
2018-12-30T22:27:13.674Z,101098.77
2018-12-30T22:29:42.538Z,101103.98
2018-12-30T22:32:11.841Z,101098.31
2018-12-30T22:34:40.698Z,101094.89
2018-12-30T22:37:09.634Z,101093.14
2018-12-30T22:39:42.222Z,101089.25
2018-12-30T22:42:14.184Z,101091.05
2018-12-30T22:44:43.201Z,101094.94
2018-12-30T22:47:12.760Z,101098.44
2018-12-30T22:49:42.071Z,101097.06
2018-12-30T22:52:11.252Z,101094.07
2018-12-30T22:54:40.036Z,101097.98
2018-12-30T22:57:13.532Z,101105.77
2018-12-30T22:59:42.413Z,101100.97
2018-12-30T23:02:11.412Z,101100.12
2018-12-30T23:04:40.676Z,101099.30
2018-12-30T23:07:17.827Z,101106.62
2018-12-30T23:09:49.878Z,101108.77
2018-12-30T23:12:18.395Z,101104.87
2018-12-30T23:14:47.102Z,101103.14
2018-12-30T23:17:17.324Z,101107.42
2018-12-30T23:19:45.752Z,101106.96
2018-12-30T23:22:14.136Z,101112.24
2018-12-30T23:24:45.825Z,101111.28
2018-12-30T23:27:14.184Z,101106.06
2018-12-30T23:29:42.821Z,101117.81
2018-12-30T23:32:11.307Z,101113.04
2018-12-30T23:34:39.846Z,101114.33
2018-12-30T23:37:09.000Z,101115.17
2018-12-30T23:39:37.509Z,101112.11
2018-12-30T23:42:06.398Z,101108.66
2018-12-30T23:44:37.455Z,101110.84
2018-12-30T23:47:06.552Z,101097.41
2018-12-30T23:49:37.159Z,101100.87
2018-12-30T23:52:05.677Z,101099.11
2018-12-30T23:54:34.385Z,101093.94
2018-12-30T23:57:02.824Z,101097.81
2018-12-30T23:59:31.545Z,101098.28
